Time;durP1;ratioP1;P1;durP2;ratioP2;P2;SDS_P1;SDS_P2;PMS_P1;PMS_P2;Temp;Humidity;BMP_temperature;BMP_pressure;BME280_temperature;BME280_humidity;BME280_pressure;Samples;Min_cycle;Max_cycle;Signal;HPM_P1;HPM_P2
2023/05/12 00:00:39;;;;;;;14.38;8.88;;;;;;;;;;2522704;23;20019;-92
2023/05/12 00:02:00;;;;;;;13.60;9.23;;;;;;;;;;2533292;23;20006;-92
2023/05/12 00:03:21;;;;;;;14.27;8.60;;;;;;;;;;2516356;23;20036;-92
2023/05/12 00:04:42;;;;;;;19.95;10.52;;;;;;;;;;2531407;23;20018;-93
2023/05/12 00:06:03;;;;;;;17.63;9.45;;;;;;;;;;2542094;23;20005;-92
2023/05/12 00:07:24;;;;;;;13.85;9.48;;;;;;;;;;2536723;23;20010;-93
2023/05/12 00:08:45;;;;;;;15.23;9.45;;;;;;;;;;2531432;23;20013;-93
2023/05/12 00:10:13;;;;;;;21.20;10.18;;;;;;;;;;2528850;23;20017;-91
2023/05/12 00:11:35;;;;;;;14.75;9.32;;;;;;;;;;2530696;23;20190;-93
2023/05/12 00:12:56;;;;;;;;;;;;;;;;;;2532840;23;20020;-93
2023/05/12 00:14:17;;;;;;;15.82;9.23;;;;;;;;;;2530662;23;19942;-93
2023/05/12 00:15:45;;;;;;;20.33;10.02;;;;;;;;;;2527573;23;20010;-92
2023/05/12 00:17:06;;;;;;;19.25;9.77;;;;;;;;;;2532123;23;20010;-93
2023/05/12 00:18:27;;;;;;;16.00;9.55;;;;;;;;;;2531732;23;20431;-93
2023/05/12 00:19:49;;;;;;;14.38;9.27;;;;;;;;;;2530850;23;20014;-93
2023/05/12 00:21:11;;;;;;;18.60;9.75;;;;;;;;;;2531735;23;20021;-91
2023/05/12 00:22:31;;;;;;;;;;;;;;;;;;2532947;23;20022;-92
2023/05/12 00:23:52;;;;;;;16.95;9.77;;;;;;;;;;2528822;23;20301;-93
2023/05/12 00:25:13;;;;;;;15.20;9.63;;;;;;;;;;2532536;23;20014;-91
2023/05/12 00:26:35;;;;;;;14.55;9.32;;;;;;;;;;2530826;23;20057;-92
2023/05/12 00:27:56;;;;;;;17.15;9.32;;;;;;;;;;2532483;23;20010;-92
2023/05/12 00:29:17;;;;;;;14.63;10.13;;;;;;;;;;2528584;23;20009;-92
2023/05/12 00:30:38;;;;;;;15.87;9.13;;;;;;;;;;2533355;23;20017;-92
2023/05/12 00:31:59;;;;;;;13.27;9.23;;;;;;;;;;2530092;23;20414;-92
2023/05/12 00:33:21;;;;;;;31.40;14.57;;;;;;;;;;2513644;23;20489;-91
2023/05/12 00:34:42;;;;;;;17.02;9.85;;;;;;;;;;2529759;23;20014;-93
2023/05/12 00:36:06;;;;;;;18.85;10.43;;;;;;;;;;2530308;23;20014;-94
2023/05/12 00:37:27;;;;;;;15.70;10.77;;;;;;;;;;2533254;23;20006;-94
2023/05/12 00:38:48;;;;;;;17.00;10.73;;;;;;;;;;2541917;23;20009;-93
2023/05/12 00:40:12;;;;;;;17.58;10.55;;;;;;;;;;2534326;23;20010;-91
2023/05/12 00:41:33;;;;;;;18.25;11.00;;;;;;;;;;2531816;23;20017;-93
2023/05/12 00:42:54;;;;;;;19.35;11.30;;;;;;;;;;2532715;23;20014;-92
2023/05/12 00:44:17;;;;;;;19.92;11.23;;;;;;;;;;2528419;23;20010;-92
2023/05/12 00:45:38;;;;;;;18.77;11.15;;;;;;;;;;2533847;23;20395;-92
2023/05/12 00:46:59;;;;;;;22.05;12.32;;;;;;;;;;2532046;23;20013;-92
2023/05/12 00:48:20;;;;;;;21.25;12.20;;;;;;;;;;2532210;23;20002;-92
2023/05/12 00:49:41;;;;;;;24.08;12.30;;;;;;;;;;2528706;23;20010;-92
2023/05/12 00:51:03;;;;;;;19.25;11.15;;;;;;;;;;2532349;23;20016;-92
2023/05/12 00:52:24;;;;;;;20.25;11.18;;;;;;;;;;2532741;23;20020;-92
2023/05/12 00:53:46;;;;;;;20.40;11.40;;;;;;;;;;2518288;23;20405;-93
2023/05/12 00:55:13;;;;;;;21.15;11.85;;;;;;;;;;2542434;23;20021;-93
2023/05/12 00:56:38;;;;;;;21.50;11.88;;;;;;;;;;2536468;23;20017;-93
2023/05/12 00:57:59;;;;;;;18.65;11.88;;;;;;;;;;2542388;23;20017;-93
2023/05/12 00:59:20;;;;;;;18.92;11.52;;;;;;;;;;2534198;23;20017;-93
2023/05/12 01:00:41;;;;;;;18.83;11.30;;;;;;;;;;2530819;23;20018;-90
2023/05/12 05:44:24;;;;;;;56.17;21.20;;;;;;;;;;2534924;23;20022;-95
2023/05/12 05:45:45;;;;;;;54.90;21.08;;;;;;;;;;2549052;23;20032;-95
2023/05/12 05:47:06;;;;;;;47.53;19.50;;;;;;;;;;2530501;23;20065;-95
2023/05/12 05:48:27;;;;;;;55.40;21.35;;;;;;;;;;2529362;23;20014;-95
2023/05/12 05:49:48;;;;;;;49.35;20.52;;;;;;;;;;2522739;23;20037;-95
2023/05/12 05:51:10;;;;;;;54.08;20.75;;;;;;;;;;2525577;23;20021;-95
2023/05/12 05:52:31;;;;;;;60.70;22.05;;;;;;;;;;2535229;23;19994;-95
2023/05/12 05:53:52;;;;;;;55.08;21.20;;;;;;;;;;2529789;23;20743;-95
2023/05/12 05:55:13;;;;;;;71.07;25.63;;;;;;;;;;2539637;23;20021;-94
2023/05/12 05:57:05;;;;;;;54.67;21.85;;;;;;;;;;2523167;23;20022;-95
2023/05/12 06:30:58;;;;;;;32.00;16.85;;;;;;;;;;2533058;23;20029;-95
2023/05/12 06:32:19;;;;;;;35.85;19.20;;;;;;;;;;2524099;23;20018;-95
2023/05/12 06:37:49;;;;;;;36.15;19.20;;;;;;;;;;2537451;23;20001;-95
2023/05/12 06:39:31;;;;;;;35.47;18.40;;;;;;;;;;2516377;23;20007;-96
2023/05/12 06:40:53;;;;;;;31.92;17.42;;;;;;;;;;2509576;23;20007;-94
2023/05/12 06:42:23;;;;;;;31.63;15.93;;;;;;;;;;2523217;23;20462;-94
2023/05/12 06:44:01;;;;;;;;;;;;;;;;;;;;;
2023/05/12 06:47:36;;;;;;;30.83;16.52;;;;;;;;;;2539896;23;20458;-95
2023/05/12 06:50:56;;;;;;;30.10;16.27;;;;;;;;;;2538499;23;20013;-96
2023/05/12 06:54:18;;;;;;;30.75;16.77;;;;;;;;;;2515355;23;20014;-96
2023/05/12 06:57:42;;;;;;;33.70;16.00;;;;;;;;;;2513232;23;20333;-94
2023/05/12 06:59:05;;;;;;;28.63;15.80;;;;;;;;;;2490224;23;20023;-95
2023/05/12 07:03:01;;;;;;;25.67;15.55;;;;;;;;;;2466413;24;20012;-95
2023/05/12 07:08:41;;;;;;;26.80;15.07;;;;;;;;;;2468103;24;20453;-94
2023/05/12 07:10:14;;;;;;;27.55;15.05;;;;;;;;;;2455919;24;20032;-95
2023/05/12 07:12:05;;;;;;;29.23;16.40;;;;;;;;;;2456670;24;20013;-95
2023/05/12 07:13:27;;;;;;;23.73;14.15;;;;;;;;;;2444593;24;20010;-95
2023/05/12 07:18:59;;;;;;;25.33;14.43;;;;;;;;;;2424646;24;20017;-95
2023/05/12 07:20:23;;;;;;;20.25;12.57;;;;;;;;;;2452278;24;20017;-95
2023/05/12 07:21:59;;;;;;;21.95;14.80;;;;;;;;;;2444685;24;20025;-95
2023/05/12 07:23:20;;;;;;;19.40;11.73;;;;;;;;;;2432794;24;20020;-95
2023/05/12 07:24:48;;;;;;;20.48;10.75;;;;;;;;;;2421451;24;20021;-94
2023/05/12 07:28:22;;;;;;;15.45;10.60;;;;;;;;;;2432215;24;20029;-95
2023/05/12 07:34:18;;;;;;;18.63;10.30;;;;;;;;;;2443569;24;20006;-95
2023/05/12 07:35:39;;;;;;;22.33;11.50;;;;;;;;;;2435748;24;20030;-94
2023/05/12 07:37:18;;;;;;;14.88;9.95;;;;;;;;;;2452213;24;20032;-95
2023/05/12 07:38:57;;;;;;;14.55;8.95;;;;;;;;;;2465710;24;20008;-95
2023/05/12 07:40:18;;;;;;;13.52;9.25;;;;;;;;;;2454076;24;20021;-95
2023/05/12 07:42:03;;;;;;;13.88;9.10;;;;;;;;;;2454183;24;20145;-95
2023/05/12 07:43:33;;;;;;;15.50;10.15;;;;;;;;;;2465594;24;20017;-94
2023/05/12 07:45:10;;;;;;;20.05;10.63;;;;;;;;;;2444161;24;20018;-95
2023/05/12 07:46:54;;;;;;;51.28;15.85;;;;;;;;;;2460933;23;20025;-95
2023/05/12 07:50:06;;;;;;;19.13;10.23;;;;;;;;;;2421599;24;20030;-95
2023/05/12 07:53:40;;;;;;;13.25;8.65;;;;;;;;;;2421222;24;20226;-95
2023/05/12 07:55:04;;;;;;;23.27;10.60;;;;;;;;;;2419409;24;20022;-95
2023/05/12 07:56:45;;;;;;;19.23;9.05;;;;;;;;;;2423657;24;20010;-95
2023/05/12 07:58:18;;;;;;;15.68;8.38;;;;;;;;;;2419875;24;20018;-94
2023/05/12 07:59:51;;;;;;;12.70;8.82;;;;;;;;;;2433168;24;20014;-96
2023/05/12 08:01:19;;;;;;;17.02;7.90;;;;;;;;;;2428208;24;20022;-95
2023/05/12 08:02:46;;;;;;;15.45;7.53;;;;;;;;;;2420119;24;20143;-95
2023/05/12 08:04:48;;;;;;;11.05;7.80;;;;;;;;;;2425101;24;20018;-95
2023/05/12 08:08:23;;;;;;;11.82;7.55;;;;;;;;;;2376449;24;20043;-96
2023/05/12 08:09:50;;;;;;;12.73;8.45;;;;;;;;;;2388307;24;20027;-95
2023/05/12 08:11:49;;;;;;;;;;;;;;;;;;;;;
2023/05/12 08:13:22;;;;;;;9.80;6.82;;;;;;;;;;2370260;24;20016;-95
2023/05/12 08:14:52;;;;;;;25.35;10.02;;;;;;;;;;2375581;24;20066;-96
2023/05/12 08:16:19;;;;;;;10.45;6.88;;;;;;;;;;2379085;24;20012;-96
2023/05/12 08:20:07;;;;;;;9.38;6.68;;;;;;;;;;2378068;24;20012;-95
2023/05/12 08:21:28;;;;;;;7.53;6.30;;;;;;;;;;2400102;24;20024;-94
2023/05/12 08:22:58;;;;;;;10.98;6.55;;;;;;;;;;2390320;24;20015;-95
2023/05/12 08:24:53;;;;;;;9.45;7.25;;;;;;;;;;2409783;24;20350;-96
2023/05/12 08:28:25;;;;;;;12.25;6.40;;;;;;;;;;2398400;24;20019;-94
2023/05/12 08:29:48;;;;;;;14.60;6.65;;;;;;;;;;2410995;24;20015;-94
2023/05/12 08:31:31;;;;;;;21.63;9.38;;;;;;;;;;2438477;24;20026;-94
2023/05/12 08:34:59;;;;;;;9.95;6.63;;;;;;;;;;2410816;24;20045;-95
2023/05/12 08:36:43;;;;;;;15.75;7.50;;;;;;;;;;2399662;24;20011;-94
2023/05/12 08:38:07;;;;;;;19.60;9.25;;;;;;;;;;2488798;23;20465;-76
2023/05/12 08:39:41;;;;;;;26.20;10.18;;;;;;;;;;2528875;23;20525;-76
2023/05/12 08:41:18;;;;;;;11.82;6.00;;;;;;;;;;2519920;23;20011;-76
2023/05/12 08:42:47;;;;;;;9.85;6.18;;;;;;;;;;2517218;23;20014;-76
2023/05/12 08:44:16;;;;;;;10.18;7.18;;;;;;;;;;2519993;23;20499;-76
2023/05/12 08:45:38;;;;;;;23.50;8.13;;;;;;;;;;2519463;23;20019;-76
2023/05/12 08:47:01;;;;;;;11.90;6.50;;;;;;;;;;2518704;23;20041;-76
2023/05/12 08:48:25;;;;;;;9.68;5.85;;;;;;;;;;2540979;23;20355;-76
2023/05/12 08:49:56;;;;;;;8.57;6.32;;;;;;;;;;2533378;23;20333;-76
2023/05/12 08:51:23;;;;;;;8.02;5.78;;;;;;;;;;2543235;23;20032;-76
2023/05/12 08:52:47;;;;;;;8.88;6.13;;;;;;;;;;2533080;23;20468;-76
2023/05/12 08:54:09;;;;;;;9.05;5.65;;;;;;;;;;2539490;23;20010;-76
2023/05/12 08:55:35;;;;;;;13.25;7.53;;;;;;;;;;2532193;23;20018;-76
2023/05/12 08:56:59;;;;;;;8.15;5.90;;;;;;;;;;2542522;23;20518;-76
2023/05/12 08:58:26;;;;;;;14.05;7.47;;;;;;;;;;2515149;23;20018;-76
2023/05/12 08:59:51;;;;;;;8.90;6.68;;;;;;;;;;2533359;23;20010;-76
2023/05/12 09:01:15;;;;;;;12.90;6.55;;;;;;;;;;2533420;23;20006;-75
2023/05/12 09:02:36;;;;;;;10.35;5.93;;;;;;;;;;2543939;23;20032;-76
2023/05/12 09:04:03;;;;;;;7.78;5.63;;;;;;;;;;2534949;23;20380;-76
2023/05/12 09:05:25;;;;;;;10.13;6.63;;;;;;;;;;2542709;23;20021;-76
2023/05/12 09:06:49;;;;;;;10.30;6.15;;;;;;;;;;2533957;23;20014;-76
2023/05/12 09:08:16;;;;;;;8.40;6.30;;;;;;;;;;2526859;23;20028;-77
2023/05/12 09:09:39;;;;;;;10.38;5.50;;;;;;;;;;2542945;23;20017;-76
2023/05/12 09:11:01;;;;;;;9.70;5.82;;;;;;;;;;2530184;23;20017;-87
2023/05/12 09:12:24;;;;;;;13.30;6.32;;;;;;;;;;2530764;23;20384;-88
2023/05/12 09:14:02;;;;;;;10.52;6.38;;;;;;;;;;2528713;23;20021;-75
2023/05/12 09:15:28;;;;;;;20.30;8.40;;;;;;;;;;2542824;23;20013;-75
2023/05/12 09:17:03;;;;;;;17.48;7.88;;;;;;;;;;2528203;23;20014;-75
2023/05/12 09:18:24;;;;;;;10.82;5.95;;;;;;;;;;2504787;23;20023;-76
2023/05/12 09:19:48;;;;;;;11.98;6.38;;;;;;;;;;2530199;23;20018;-76
2023/05/12 09:21:11;;;;;;;8.65;5.38;;;;;;;;;;2533118;23;20364;-75
2023/05/12 09:22:38;;;;;;;10.18;5.90;;;;;;;;;;2531464;23;20010;-76
2023/05/12 09:24:04;;;;;;;10.68;5.38;;;;;;;;;;2531919;23;20034;-75
2023/05/12 09:25:28;;;;;;;7.95;5.70;;;;;;;;;;2529635;23;20021;-76
2023/05/12 09:26:56;;;;;;;7.88;5.22;;;;;;;;;;2529714;23;20024;-75
2023/05/12 09:28:17;;;;;;;8.07;5.47;;;;;;;;;;2529258;23;20021;-75
2023/05/12 09:29:48;;;;;;;7.43;5.07;;;;;;;;;;2538799;23;20010;-75
2023/05/12 09:31:19;;;;;;;7.50;4.82;;;;;;;;;;2531768;23;20022;-75
2023/05/12 09:32:40;;;;;;;16.92;7.15;;;;;;;;;;2541526;23;20021;-75
2023/05/12 09:34:08;;;;;;;9.48;5.45;;;;;;;;;;2531652;23;20017;-75
2023/05/12 09:35:29;;;;;;;9.55;5.65;;;;;;;;;;2530875;23;20024;-75
2023/05/12 09:36:56;;;;;;;8.80;5.27;;;;;;;;;;2527584;23;20439;-75
2023/05/12 09:38:17;;;;;;;7.88;5.80;;;;;;;;;;2540018;23;20404;-75
2023/05/12 09:39:38;;;;;;;7.47;5.85;;;;;;;;;;2543312;23;20339;-76
2023/05/12 09:40:59;;;;;;;8.73;5.43;;;;;;;;;;2531603;23;20021;-75
2023/05/12 09:42:21;;;;;;;17.35;8.02;;;;;;;;;;2539544;23;20017;-75
2023/05/12 09:43:45;;;;;;;;;;;;;;;;;;2530205;23;20451;-75
2023/05/12 09:45:08;;;;;;;7.93;5.75;;;;;;;;;;2526178;23;20330;-75
2023/05/12 09:46:32;;;;;;;11.43;6.30;;;;;;;;;;2541506;23;20462;-75
2023/05/12 09:48:01;;;;;;;24.77;9.48;;;;;;;;;;2530501;23;20014;-76
2023/05/12 09:49:26;;;;;;;10.30;6.75;;;;;;;;;;2540531;23;20006;-75
2023/05/12 09:50:51;;;;;;;17.17;6.60;;;;;;;;;;2541208;23;20021;-75
2023/05/12 09:52:12;;;;;;;14.75;6.60;;;;;;;;;;2542909;23;20431;-75
2023/05/12 09:53:39;;;;;;;9.45;5.38;;;;;;;;;;2532728;23;20022;-75
2023/05/12 09:55:10;;;;;;;8.90;5.72;;;;;;;;;;2530545;23;20010;-76
2023/05/12 09:56:32;;;;;;;8.35;4.95;;;;;;;;;;2542786;23;20009;-75
2023/05/12 09:57:54;;;;;;;24.63;9.65;;;;;;;;;;2517544;23;20010;-75
2023/05/12 09:59:18;;;;;;;11.15;6.13;;;;;;;;;;2529385;23;20002;-76
2023/05/12 10:00:40;;;;;;;11.85;5.82;;;;;;;;;;2528290;23;20069;-76
2023/05/12 10:02:03;;;;;;;13.25;6.72;;;;;;;;;;2540477;23;20010;-76
2023/05/12 10:03:25;;;;;;;17.30;7.50;;;;;;;;;;2531212;23;20006;-76
2023/05/12 10:04:56;;;;;;;10.35;6.00;;;;;;;;;;2539847;23;20017;-76
2023/05/12 10:06:21;;;;;;;8.55;5.97;;;;;;;;;;2532049;23;20006;-76
2023/05/12 10:07:50;;;;;;;10.73;5.93;;;;;;;;;;2539739;23;20013;-75
2023/05/12 10:09:19;;;;;;;6.45;4.82;;;;;;;;;;2532745;23;20383;-76
2023/05/12 10:10:40;;;;;;;7.10;4.80;;;;;;;;;;2532339;23;20010;-75
2023/05/12 10:12:02;;;;;;;7.50;5.03;;;;;;;;;;2542840;23;20017;-76
2023/05/12 10:13:25;;;;;;;7.43;4.95;;;;;;;;;;2530993;23;20006;-76
2023/05/12 10:14:49;;;;;;;7.63;5.03;;;;;;;;;;2541631;23;20009;-75
2023/05/12 10:16:10;;;;;;;9.85;5.68;;;;;;;;;;2530639;23;20018;-76
2023/05/12 10:17:32;;;;;;;5.40;4.30;;;;;;;;;;2541643;23;20533;-76
2023/05/12 10:18:53;;;;;;;29.30;9.50;;;;;;;;;;2515696;23;20468;-76
2023/05/12 10:20:14;;;;;;;9.23;5.57;;;;;;;;;;2526999;23;20428;-76
2023/05/12 10:21:35;;;;;;;16.85;6.25;;;;;;;;;;2533516;23;20010;-76
2023/05/12 10:23:00;;;;;;;19.85;8.30;;;;;;;;;;2517176;23;20855;-75
2023/05/12 10:24:26;;;;;;;11.07;5.57;;;;;;;;;;2527412;23;20305;-76
2023/05/12 10:25:52;;;;;;;10.52;5.65;;;;;;;;;;2520123;23;20010;-76
2023/05/12 10:27:20;;;;;;;8.70;4.97;;;;;;;;;;2517876;23;20019;-76
2023/05/12 10:28:46;;;;;;;8.77;5.45;;;;;;;;;;2528783;23;20025;-76
2023/05/12 10:30:11;;;;;;;7.82;5.05;;;;;;;;;;2530246;23;20378;-76
2023/05/12 10:31:35;;;;;;;7.28;5.30;;;;;;;;;;2529612;23;20025;-76
2023/05/12 10:33:00;;;;;;;11.50;5.57;;;;;;;;;;2527343;23;20026;-76
2023/05/12 10:34:27;;;;;;;9.25;5.47;;;;;;;;;;2528722;23;20020;-75
2023/05/12 10:35:49;;;;;;;9.73;5.60;;;;;;;;;;2528843;23;20348;-76
2023/05/12 10:37:10;;;;;;;8.27;5.68;;;;;;;;;;2529778;23;20026;-76
2023/05/12 10:38:34;;;;;;;7.72;4.90;;;;;;;;;;2512672;23;20022;-76
2023/05/12 10:39:59;;;;;;;6.22;4.75;;;;;;;;;;2541158;23;20021;-76
2023/05/12 10:41:34;;;;;;;7.53;5.38;;;;;;;;;;2537328;23;20018;-76
2023/05/12 10:42:57;;;;;;;10.40;5.65;;;;;;;;;;2534206;23;20010;-75
2023/05/12 10:44:28;;;;;;;8.35;5.00;;;;;;;;;;2531695;23;20021;-76
2023/05/12 10:46:08;;;;;;;12.45;6.10;;;;;;;;;;2529770;23;20073;-76
2023/05/12 10:47:40;;;;;;;6.80;4.97;;;;;;;;;;2532321;23;20491;-76
2023/05/12 10:49:03;;;;;;;6.30;5.15;;;;;;;;;;2507085;23;20029;-76
2023/05/12 10:50:27;;;;;;;12.20;6.20;;;;;;;;;;2525157;23;20017;-76
2023/05/12 10:51:50;;;;;;;7.75;5.50;;;;;;;;;;2532442;23;20332;-76
2023/05/12 10:53:11;;;;;;;5.97;4.82;;;;;;;;;;2520774;23;20014;-76
2023/05/12 10:54:43;;;;;;;6.47;4.95;;;;;;;;;;2529123;23;20014;-76
2023/05/12 10:56:07;;;;;;;8.93;4.90;;;;;;;;;;2520971;23;20440;-76
2023/05/12 10:57:31;;;;;;;8.07;5.13;;;;;;;;;;2517747;23;20457;-76
2023/05/12 10:59:11;;;;;;;9.07;5.80;;;;;;;;;;2525941;23;20089;-76
2023/05/12 11:00:46;;;;;;;9.65;5.78;;;;;;;;;;2532537;23;20017;-76
2023/05/12 11:02:21;;;;;;;7.00;4.93;;;;;;;;;;2543185;23;20114;-76
2023/05/12 11:03:42;;;;;;;10.20;6.00;;;;;;;;;;2546280;23;20009;-76
2023/05/12 11:05:10;;;;;;;10.00;6.00;;;;;;;;;;2531196;23;20010;-76
2023/05/12 11:06:31;;;;;;;8.93;5.22;;;;;;;;;;2531564;23;20018;-76
2023/05/12 11:07:54;;;;;;;8.23;6.20;;;;;;;;;;2540723;23;20006;-74
2023/05/12 11:09:20;;;;;;;7.82;5.20;;;;;;;;;;2519833;23;20069;-75
2023/05/12 11:10:42;;;;;;;8.45;5.85;;;;;;;;;;2528630;23;20432;-75
2023/05/12 11:12:04;;;;;;;7.50;5.67;;;;;;;;;;2530274;23;20056;-75
2023/05/12 11:13:25;;;;;;;20.73;7.90;;;;;;;;;;2517321;23;20007;-76
2023/05/12 11:14:49;;;;;;;10.23;5.72;;;;;;;;;;2516950;23;20078;-74
2023/05/12 11:16:13;;;;;;;10.10;5.50;;;;;;;;;;2514018;23;20014;-74
2023/05/12 11:17:40;;;;;;;8.57;5.50;;;;;;;;;;2529019;23;20066;-75
2023/05/12 11:19:12;;;;;;;12.77;6.47;;;;;;;;;;2517275;23;20459;-74
2023/05/12 11:20:35;;;;;;;10.27;5.38;;;;;;;;;;2531093;23;20006;-75
2023/05/12 11:21:56;;;;;;;11.98;6.22;;;;;;;;;;2521221;23;20007;-74
2023/05/12 11:23:24;;;;;;;13.77;7.22;;;;;;;;;;2515711;23;20452;-75
2023/05/12 11:24:46;;;;;;;16.42;6.93;;;;;;;;;;2529952;23;20013;-74
2023/05/12 11:26:15;;;;;;;8.93;5.97;;;;;;;;;;2520793;23;20243;-75
2023/05/12 11:27:41;;;;;;;14.50;7.72;;;;;;;;;;2529419;23;20021;-74
2023/05/12 11:29:02;;;;;;;9.15;5.40;;;;;;;;;;2519833;23;20379;-74
2023/05/12 11:30:23;;;;;;;9.82;6.07;;;;;;;;;;2530174;23;20463;-75
2023/05/12 11:31:47;;;;;;;10.05;5.50;;;;;;;;;;2531378;23;20037;-75
2023/05/12 11:33:12;;;;;;;8.18;5.28;;;;;;;;;;2529472;23;20014;-74
2023/05/12 11:34:41;;;;;;;7.97;5.35;;;;;;;;;;2540174;23;20055;-76
2023/05/12 11:36:03;;;;;;;6.38;4.68;;;;;;;;;;2520404;23;20010;-76
2023/05/12 11:37:27;;;;;;;7.25;5.32;;;;;;;;;;2525163;23;20336;-76
2023/05/12 11:38:53;;;;;;;11.10;5.65;;;;;;;;;;2520630;23;20015;-76
2023/05/12 11:40:21;;;;;;;7.50;4.72;;;;;;;;;;2526386;23;20009;-76
2023/05/12 11:41:49;;;;;;;8.80;5.03;;;;;;;;;;2518849;23;20078;-77
2023/05/12 11:43:33;;;;;;;8.52;5.38;;;;;;;;;;2517331;23;20018;-77
2023/05/12 11:45:07;;;;;;;8.48;4.75;;;;;;;;;;2532247;23;20013;-76
2023/05/12 11:46:37;;;;;;;13.55;6.28;;;;;;;;;;2518760;23;20094;-76
2023/05/12 11:48:15;;;;;;;10.32;5.15;;;;;;;;;;2518209;23;20441;-76
2023/05/12 11:49:54;;;;;;;15.23;6.38;;;;;;;;;;2517986;23;20089;-76
2023/05/12 11:51:18;;;;;;;11.40;5.53;;;;;;;;;;2531686;23;20463;-74
2023/05/12 11:52:50;;;;;;;9.32;4.78;;;;;;;;;;2517179;23;20066;-75
2023/05/12 11:54:11;;;;;;;12.02;5.22;;;;;;;;;;2530874;23;20014;-75
2023/05/12 11:55:33;;;;;;;11.27;5.40;;;;;;;;;;2520011;23;20014;-75
2023/05/12 11:57:02;;;;;;;7.07;4.78;;;;;;;;;;2528308;23;20017;-75
2023/05/12 11:58:30;;;;;;;6.78;4.80;;;;;;;;;;2520976;23;20018;-76
2023/05/12 12:00:01;;;;;;;8.98;5.82;;;;;;;;;;2527147;23;20444;-75
2023/05/12 12:01:23;;;;;;;8.38;4.70;;;;;;;;;;2520459;23;20049;-75
2023/05/12 12:02:47;;;;;;;10.23;5.22;;;;;;;;;;2527399;23;20817;-75
2023/05/12 12:04:11;;;;;;;8.20;4.90;;;;;;;;;;2521320;23;20007;-75
2023/05/12 12:05:40;;;;;;;7.28;4.78;;;;;;;;;;2516181;23;20018;-76
2023/05/12 12:07:04;;;;;;;12.90;5.75;;;;;;;;;;2519026;23;20013;-75
2023/05/12 12:08:28;;;;;;;8.25;5.50;;;;;;;;;;2515332;23;20014;-76
2023/05/12 12:09:52;;;;;;;7.22;4.80;;;;;;;;;;2520676;23;20015;-75
2023/05/12 12:11:13;;;;;;;10.05;5.53;;;;;;;;;;2528345;23;20006;-76
2023/05/12 12:12:36;;;;;;;11.27;6.35;;;;;;;;;;2522160;23;20014;-76
2023/05/12 12:14:09;;;;;;;19.45;8.05;;;;;;;;;;2514184;23;20018;-76
2023/05/12 12:15:38;;;;;;;16.35;7.60;;;;;;;;;;2517752;23;20018;-75
2023/05/12 12:16:59;;;;;;;11.85;6.13;;;;;;;;;;2530862;23;20010;-75
2023/05/12 12:18:20;;;;;;;12.15;6.38;;;;;;;;;;2519195;23;20007;-76
2023/05/12 12:19:41;;;;;;;9.67;6.50;;;;;;;;;;2525641;23;20451;-75
2023/05/12 12:21:12;;;;;;;8.73;4.88;;;;;;;;;;2526613;23;20013;-75
2023/05/12 12:22:33;;;;;;;10.25;5.53;;;;;;;;;;2530762;23;20010;-75
2023/05/12 12:23:54;;;;;;;16.77;6.50;;;;;;;;;;2526183;23;20009;-75
2023/05/12 12:29:33;;;;;;;32.90;9.90;;;;;;;;;;2542288;23;20010;-75
2023/05/12 12:31:36;;;;;;;;;;;;;;;;;;;;;
2023/05/12 12:37:21;;;;;;;11.85;6.18;;;;;;;;;;2542696;23;20020;-74
2023/05/12 12:39:03;;;;;;;9.63;5.63;;;;;;;;;;2544183;23;20017;-74
2023/05/12 12:40:48;;;;;;;9.68;6.28;;;;;;;;;;2529609;23;20348;-74
2023/05/12 12:42:09;;;;;;;13.50;6.65;;;;;;;;;;2531753;23;20014;-73
2023/05/12 12:47:43;;;;;;;11.55;5.88;;;;;;;;;;2529692;23;20006;-77
2023/05/12 12:49:04;;;;;;;16.08;6.63;;;;;;;;;;2531549;23;20006;-77
2023/05/12 12:50:36;;;;;;;30.33;10.73;;;;;;;;;;2530112;23;20349;-77
2023/05/12 12:58:14;;;;;;;8.23;5.65;;;;;;;;;;2506937;23;20146;-75
2023/05/12 13:11:03;;;;;;;29.17;11.00;;;;;;;;;;2499641;23;20057;-74
2023/05/12 13:12:24;;;;;;;10.23;6.13;;;;;;;;;;2519925;23;20018;-72
2023/05/12 13:13:45;;;;;;;12.43;5.80;;;;;;;;;;2505953;23;20074;-72
2023/05/12 13:15:07;;;;;;;10.35;6.07;;;;;;;;;;2518079;23;20021;-73
2023/05/12 13:16:28;;;;;;;8.18;5.47;;;;;;;;;;2509528;23;20014;-72
2023/05/12 13:17:50;;;;;;;7.95;5.28;;;;;;;;;;2502180;23;20007;-72
2023/05/12 13:19:11;;;;;;;6.35;4.97;;;;;;;;;;2515119;23;20014;-73
2023/05/12 13:20:32;;;;;;;11.68;5.97;;;;;;;;;;2508330;23;20026;-73
2023/05/12 13:22:31;;;;;;;9.03;5.50;;;;;;;;;;2503393;23;20026;-73
2023/05/12 13:23:52;;;;;;;8.00;5.47;;;;;;;;;;2515466;23;20041;-73
2023/05/12 13:25:16;;;;;;;11.50;5.70;;;;;;;;;;2519674;23;20017;-73
2023/05/12 13:28:35;;;;;;;10.02;5.50;;;;;;;;;;2519623;23;20006;-73
2023/05/12 13:29:56;;;;;;;21.60;8.63;;;;;;;;;;2518435;23;20017;-74
2023/05/12 13:31:17;;;;;;;14.13;6.43;;;;;;;;;;2520770;23;20530;-73
2023/05/12 13:32:38;;;;;;;12.52;5.05;;;;;;;;;;2508208;23;20011;-73
2023/05/12 13:33:59;;;;;;;6.43;4.57;;;;;;;;;;2516833;23;20022;-73
2023/05/12 13:35:20;;;;;;;9.85;5.13;;;;;;;;;;2519206;23;20382;-72
2023/05/12 13:36:41;;;;;;;7.07;4.93;;;;;;;;;;2518984;23;20304;-73
2023/05/12 13:38:02;;;;;;;9.02;6.75;;;;;;;;;;2508255;23;20007;-73
2023/05/12 13:39:23;;;;;;;9.98;5.20;;;;;;;;;;2514593;23;20006;-73
2023/05/12 13:40:44;;;;;;;9.65;5.18;;;;;;;;;;2527634;23;20010;-74
2023/05/12 13:42:05;;;;;;;7.55;4.88;;;;;;;;;;2530548;23;20403;-73
2023/05/12 13:43:26;;;;;;;11.48;6.28;;;;;;;;;;2517844;23;20010;-73
2023/05/12 13:44:47;;;;;;;8.65;5.07;;;;;;;;;;2514535;23;20010;-73
2023/05/12 13:46:08;;;;;;;14.27;6.93;;;;;;;;;;2515371;23;20480;-74
2023/05/12 13:47:29;;;;;;;12.80;6.55;;;;;;;;;;2529075;23;20021;-74
2023/05/12 13:48:51;;;;;;;6.45;4.93;;;;;;;;;;2533691;23;20026;-74
2023/05/12 13:50:12;;;;;;;9.52;5.13;;;;;;;;;;2527151;23;20011;-74
2023/05/12 13:51:33;;;;;;;9.50;5.18;;;;;;;;;;2506955;23;20007;-74
2023/05/12 13:52:53;;;;;;;8.10;5.18;;;;;;;;;;2516111;23;20010;-74
2023/05/12 13:54:14;;;;;;;5.60;4.40;;;;;;;;;;2520637;23;20444;-74
2023/05/12 13:55:37;;;;;;;6.72;4.68;;;;;;;;;;2522578;23;20013;-74
2023/05/12 13:56:58;;;;;;;7.15;4.97;;;;;;;;;;2520726;23;20322;-73
2023/05/12 13:58:19;;;;;;;9.15;5.45;;;;;;;;;;2519954;23;20007;-74
2023/05/12 13:59:40;;;;;;;7.25;4.88;;;;;;;;;;2508500;23;20007;-74
2023/05/12 14:01:01;;;;;;;7.80;4.80;;;;;;;;;;2521657;23;20022;-74
2023/05/12 14:02:22;;;;;;;6.07;5.20;;;;;;;;;;2519639;23;20017;-74
2023/05/12 14:03:43;;;;;;;7.18;5.60;;;;;;;;;;2508724;23;20014;-74
2023/05/12 14:05:04;;;;;;;7.10;5.20;;;;;;;;;;2503946;23;20016;-74
2023/05/12 14:06:25;;;;;;;6.88;5.00;;;;;;;;;;2503588;23;20019;-74
2023/05/12 14:07:46;;;;;;;7.50;4.80;;;;;;;;;;2516323;23;20010;-73
2023/05/12 14:09:07;;;;;;;7.60;4.88;;;;;;;;;;2520247;23;20010;-74
2023/05/12 14:10:28;;;;;;;6.15;4.90;;;;;;;;;;2507309;23;20015;-75
2023/05/12 14:11:49;;;;;;;8.30;5.15;;;;;;;;;;2517421;23;20082;-74
2023/05/12 14:13:11;;;;;;;11.85;6.07;;;;;;;;;;2519547;23;20017;-74
2023/05/12 14:14:32;;;;;;;6.90;4.55;;;;;;;;;;2518938;23;20014;-74
2023/05/12 14:15:53;;;;;;;7.88;4.95;;;;;;;;;;2507499;23;20015;-74
2023/05/12 14:17:15;;;;;;;8.27;5.28;;;;;;;;;;2515928;23;20011;-74
2023/05/12 14:18:36;;;;;;;9.32;4.65;;;;;;;;;;2519330;23;20125;-73
2023/05/12 14:19:57;;;;;;;8.65;5.05;;;;;;;;;;2507072;23;20018;-74
2023/05/12 14:21:18;;;;;;;7.32;5.05;;;;;;;;;;2521411;23;20014;-74
2023/05/12 14:22:40;;;;;;;7.97;5.90;;;;;;;;;;2522423;23;20010;-80
2023/05/12 14:24:01;;;;;;;7.30;4.95;;;;;;;;;;2520335;23;20356;-80
2023/05/12 14:25:24;;;;;;;11.05;6.13;;;;;;;;;;2532258;23;20333;-81
2023/05/12 14:26:44;;;;;;;9.63;5.85;;;;;;;;;;2531878;23;20391;-82
2023/05/12 14:28:05;;;;;;;9.48;5.88;;;;;;;;;;2519553;23;20015;-81
2023/05/12 14:29:26;;;;;;;12.52;5.63;;;;;;;;;;2520994;23;20014;-81
2023/05/12 14:30:47;;;;;;;7.82;5.05;;;;;;;;;;2518128;23;20087;-82
2023/05/12 14:32:08;;;;;;;11.60;5.18;;;;;;;;;;2521101;23;20017;-81
2023/05/12 14:33:30;;;;;;;6.75;4.85;;;;;;;;;;2519206;23;20021;-82
2023/05/12 14:34:51;;;;;;;11.15;5.68;;;;;;;;;;2531427;23;20010;-81
2023/05/12 14:36:12;;;;;;;9.60;5.30;;;;;;;;;;2519568;23;20353;-82
2023/05/12 14:37:32;;;;;;;6.05;4.78;;;;;;;;;;2522549;23;20018;-81
2023/05/12 14:38:53;;;;;;;7.03;5.00;;;;;;;;;;2532840;23;20010;-81
2023/05/12 14:40:14;;;;;;;6.80;4.97;;;;;;;;;;2524955;23;20042;-82
2023/05/12 14:41:35;;;;;;;5.93;5.00;;;;;;;;;;2519397;23;20018;-81
2023/05/12 14:42:56;;;;;;;8.25;4.95;;;;;;;;;;2532187;23;20006;-81
2023/05/12 14:44:17;;;;;;;10.32;5.18;;;;;;;;;;2526003;23;20394;-82
2023/05/12 14:45:38;;;;;;;7.07;5.07;;;;;;;;;;2532418;23;20469;-82
2023/05/12 14:46:59;;;;;;;6.97;5.00;;;;;;;;;;2532017;23;20009;-82
2023/05/12 14:48:21;;;;;;;12.32;5.50;;;;;;;;;;2524942;23;20365;-81
2023/05/12 14:49:41;;;;;;;8.85;5.05;;;;;;;;;;2519794;23;20014;-81
2023/05/12 14:51:02;;;;;;;7.43;5.13;;;;;;;;;;2520264;23;20071;-81
2023/05/12 14:52:23;;;;;;;6.25;5.07;;;;;;;;;;2519636;23;20018;-81
2023/05/12 14:53:44;;;;;;;6.78;5.03;;;;;;;;;;2520174;23;20015;-81
2023/05/12 14:55:10;;;;;;;6.43;4.63;;;;;;;;;;2527746;23;20812;-81
2023/05/12 14:56:32;;;;;;;13.35;6.18;;;;;;;;;;2523000;23;20014;-82